EDT,Max TemperatureF,Mean TemperatureF,Min TemperatureF,Max Dew PointF,MeanDew PointF,Min DewpointF,Max Humidity, Mean Humidity, Min Humidity, Max Sea Level PressureIn, Mean Sea Level PressureIn, Min Sea Level PressureIn, Max VisibilityMiles, Mean VisibilityMiles, Min VisibilityMiles, Max Wind SpeedMPH, Mean Wind SpeedMPH, Max Gust SpeedMPH,PrecipitationIn, CloudCover, Events, WindDirDegrees
2012-9-1,91,80,69,75,71,66,100,77,46,30.22,30.15,30.08,10,8,0,9,1,,0.00,1,Fog,272
2012-9-2,91,80,69,73,72,68,100,81,46,30.12,30.06,29.99,10,9,1,21,2,29,0.00,1,Rain-Thunderstorm,255
2012-9-3,89,81,73,75,72,66,100,79,46,30.05,30.01,29.96,10,10,5,10,2,21,0.00,2,Rain-Thunderstorm,229
2012-9-4,87,79,71,75,71,68,100,84,52,30.01,29.98,29.93,10,10,5,15,3,18,0.00,3,Rain-Thunderstorm,212
2012-9-5,86,78,69,75,71,70,100,88,58,30.01,29.97,29.93,10,7,0,13,1,24,0.00,4,Fog-Rain,174
2012-9-6,89,80,71,75,71,68,100,81,49,30.04,29.98,29.93,10,7,0,9,2,,0.00,4,Fog,250
2012-9-7,93,82,71,73,70,64,100,74,38,30.00,29.94,29.88,10,10,5,14,1,,0.00,3,Thunderstorm,238
2012-9-8,89,80,71,73,71,68,100,80,49,29.91,29.86,29.77,10,9,3,17,4,23,0.00,3,Rain-Thunderstorm,230
2012-9-9,82,73,64,72,65,57,100,80,45,30.02,29.92,29.84,10,9,4,10,3,16,0.00,4,,345
2012-9-10,84,72,59,64,58,46,100,71,27,30.15,30.09,30.02,10,10,4,9,1,17,0.00,2,,67
2012-9-11,84,70,57,63,56,48,100,69,30,30.28,30.21,30.14,10,9,5,12,2,,0.00,1,,95
2012-9-12,82,68,55,61,57,50,100,69,32,30.34,30.27,30.22,10,10,5,12,3,17,0.00,1,,76
2012-9-13,84,72,60,70,63,59,94,77,48,30.30,30.25,30.19,10,10,7,18,4,23,0.00,4,Rain,68
2012-9-14,86,75,64,70,61,54,100,67,33,30.24,30.19,30.14,10,10,10,10,3,16,0.00,4,,53
2012-9-15,87,74,60,66,60,54,100,71,31,30.21,30.15,30.09,10,10,10,8,1,,0.00,1,,60
2012-9-16,87,74,62,68,62,55,100,67,33,30.14,30.09,30.02,10,10,5,9,1,,0.00,1,,147
2012-9-17,89,79,69,72,67,61,100,71,40,30.08,29.99,29.89,10,9,0,14,5,21,0.00,4,Fog,165
2012-9-18,80,74,69,73,71,68,100,90,65,29.92,29.83,29.75,10,9,1,17,9,37,0.00,5,Rain-Thunderstorm,211
2012-9-19,82,71,60,70,63,59,100,77,45,30.09,30.00,29.91,10,9,7,8,3,,0.00,1,,344
2012-9-20,82,73,64,68,64,61,100,78,48,30.14,30.09,30.05,10,10,5,9,4,,0.00,3,,88
2012-9-21,86,73,60,70,64,59,100,81,43,30.11,30.07,30.01,10,7,0,5,0,,0.00,2,Fog,69
2012-9-22,87,74,60,72,64,59,100,77,38,30.10,30.04,29.99,10,7,0,9,2,,0.00,2,Fog,275
2012-9-23,82,68,55,64,53,39,94,60,23,30.16,30.10,30.04,10,10,10,10,5,18,0.00,0,,342
2012-9-24,80,64,48,55,47,36,94,58,20,30.19,30.15,30.12,10,10,10,7,2,,0.00,0,,26
2012-9-25,82,66,51,61,52,43,100,68,25,30.23,30.19,30.17,10,9,4,7,1,,0.00,0,,96
2012-9-26,86,68,51,63,56,46,100,75,25,30.24,30.19,30.14,10,9,5,5,0,,0.00,0,,321
2012-9-27,87,76,64,73,66,59,100,80,38,30.23,30.17,30.10,10,8,0,7,1,,0.00,4,Fog,43
2012-9-28,87,74,60,72,64,57,100,76,35,30.16,30.10,30.02,10,9,0,5,0,,0.00,1,Fog,314
2012-9-29,86,75,64,72,66,63,100,81,48,30.06,29.98,29.88,10,10,7,10,1,17,0.00,3,Rain,255
2012-9-30,78,74,69,72,70,68,100,91,69,29.93,29.87,29.83,10,9,3,9,3,,0.00,7,Rain,195